Perth, Western Australia

10:11 AM AWST on July 28, 2016 (GMT +0800)
Rivervale | | Change Station

Elev 49 ft 31.95 °S, 115.92 °E | Updated 29 seconds ago

Clear
Clear
62.8 °F
Feels Like 62.8 °F
N
0.0
Wind Variable Wind from ENE
Gusts 0.0 mph

Today
High -- | Low -- °F
--% Chance of Precip.
Yesterday
High -- | Low -- °F
Precip. -- in
Pressure 30.18 in
Visibility -9999.0 miles
Clouds
Dew Point 32 °F
Humidity 32%
Rainfall 0.00 in
Snow Depth Not available.
7:07 AM 5:37 PM
Last Quarter, 37% visible
METAR YPPH 280200Z 06005KT CAVOK 16/07 Q1022 NOSIG
Pressure 30.18 in
Visibility -9999.0 miles
Clouds
Dew Point 32 °F
Humidity 32%
Rainfall 0.00 in
Snow Depth Not available.
7:07 AM 5:37 PM
Last Quarter, 37% visible
METAR YPPH 280200Z 06005KT CAVOK 16/07 Q1022 NOSIG

10-Day Weather Forecast

Almanac

Astronomy

Jul. 28, 2016 Rise Set
Actual Time
Civil Twilight
Nautical Twilight
Astronomical Twilight
Moon
Length of Visible Light
Length of Day
Tomorrow will be .
, % of the Moon is Illuminated

Today's Extremes

Country Highs Country Lows

Community

WunderPhotos

Upload Photos

1,928,012 photos uploaded!

WunderBlog® & News

Nearby

Air Quality

  Air Quality AQ Index Pollutant
Not available.

Snow Depth

Station Depth Elevation

Earthquake Activity

City Distance Mag. Time & Date
Minimum magnitude displayed is 2.5.

Coastal Water Temperatures

Place Temperature

Stations

Nearby Weather Stations

Station Location Temp. Windchill Dew Point Humidity Wind Precip. Elev Updated Type